Time;durP1;ratioP1;P1;durP2;ratioP2;P2;SDS_P1;SDS_P2;PMS_P1;PMS_P2;Temp;Humidity;BMP_temperature;BMP_pressure;BME280_temperature;BME280_humidity;BME280_pressure;Samples;Min_cycle;Max_cycle;Signal;HPM_P1;HPM_P2
2021/04/12 00:00:42;;;;;;;10.55;5.70;;;;;;;12.99;58.41;100703.62;1777709;78;25796;-73
2021/04/12 00:03:28;;;;;;;11.18;5.20;;;;;;;12.94;58.45;100701.52;1779893;78;25895;-72
2021/04/12 00:06:13;;;;;;;8.55;4.90;;;;;;;12.88;58.43;100690.73;1773798;78;26486;-73
2021/04/12 00:09:04;;;;;;;8.50;5.80;;;;;;;12.84;58.55;100694.86;1798369;78;27532;-73
2021/04/12 00:11:45;;;;;;;8.58;5.20;;;;;;;12.82;58.58;100699.09;1741714;80;26158;-72
2021/04/12 00:14:30;;;;;;;9.00;5.33;;;;;;;12.75;58.62;100698.22;1770847;78;26281;-72
2021/04/12 00:17:06;;;;;;;7.85;5.33;;;;;;;12.71;58.58;100693.44;1752196;80;25834;-73
2021/04/12 00:19:55;;;;;;;7.97;5.62;;;;;;;12.70;58.52;100695.28;1771449;80;26168;-73
2021/04/12 00:22:39;;;;;;;10.35;5.60;;;;;;;12.70;58.57;100697.16;1780252;78;28502;-73
2021/04/12 00:25:15;;;;;;;9.63;5.65;;;;;;;12.69;58.58;100690.12;1786768;79;25732;-73
2021/04/12 00:27:51;;;;;;;7.30;5.45;;;;;;;12.69;58.59;100690.95;1710933;80;25892;-72
2021/04/12 00:30:23;;;;;;;11.97;5.65;;;;;;;12.68;58.53;100689.28;1750279;80;26363;-72
2021/04/12 00:33:11;;;;;;;7.62;5.78;;;;;;;12.62;58.60;100687.39;1753915;80;25795;-72
2021/04/12 00:35:47;;;;;;;7.42;5.12;;;;;;;12.58;58.63;100687.98;1787780;79;27441;-73
2021/04/12 00:38:32;;;;;;;7.75;5.67;;;;;;;12.52;58.69;100688.27;1779781;78;26076;-73
2021/04/12 00:41:34;;;;;;;11.83;5.83;;;;;;;12.51;58.65;100693.31;1781767;78;25688;-73
2021/04/12 00:44:27;;;;;;;11.08;6.40;;;;;;;12.44;58.76;100684.40;1790968;79;25705;-73
2021/04/12 00:47:35;;;;;;;8.60;6.10;;;;;;;12.39;58.83;100686.83;1773475;78;26462;-72
2021/04/12 00:50:28;;;;;;;9.83;5.62;;;;;;;12.39;58.95;100686.33;1796627;78;27515;-73
2021/04/12 00:53:29;;;;;;;11.40;6.15;;;;;;;12.39;58.94;100683.64;1774671;78;26404;-72
2021/04/12 00:56:04;;;;;;;9.53;6.37;;;;;;;12.36;58.97;100677.30;1744578;80;26453;-73
2021/04/12 00:58:57;;;;;;;13.95;8.08;;;;;;;12.34;59.09;100667.78;1740027;79;25806;-72
2021/04/12 01:01:44;;;;;;;9.88;6.25;;;;;;;12.28;59.12;100670.75;1798102;78;26231;-72
2021/04/12 01:04:37;;;;;;;11.95;6.03;;;;;;;12.22;59.41;100676.06;1765787;80;27635;-72
2021/04/12 01:07:45;;;;;;;8.45;6.03;;;;;;;12.12;59.56;100676.42;1768494;79;25746;-72
2021/04/12 01:10:40;;;;;;;10.15;6.15;;;;;;;12.04;59.54;100681.11;1754814;79;26415;-72
2021/04/12 01:13:33;;;;;;;13.58;6.87;;;;;;;12.02;59.72;100673.22;1798576;78;25780;-72
2021/04/12 01:16:25;;;;;;;12.88;6.85;;;;;;;12.02;59.81;100671.88;1762713;79;25792;-72
2021/04/12 01:19:03;;;;;;;9.18;6.00;;;;;;;12.00;59.99;100674.44;1785302;78;27523;-73
2021/04/12 01:22:09;;;;;;;11.93;6.28;;;;;;;11.96;60.03;100667.30;1778268;78;26169;-73
2021/04/12 01:25:03;;;;;;;12.73;6.22;;;;;;;11.92;60.12;100671.39;1763323;80;25792;-72
2021/04/12 01:28:08;;;;;;;10.32;6.40;;;;;;;11.87;60.21;100675.69;1780805;80;25806;-73
2021/04/12 01:31:07;;;;;;;9.58;6.15;;;;;;;11.88;60.33;100678.67;1780437;78;25811;-73
2021/04/12 01:33:48;;;;;;;9.70;6.10;;;;;;;11.90;60.41;100677.97;1709989;82;27342;-72
2021/04/12 01:36:43;;;;;;;14.25;7.80;;;;;;;11.87;60.41;100674.35;1782566;80;26063;-73
2021/04/12 01:39:49;;;;;;;8.45;6.28;;;;;;;11.85;60.29;100673.18;1747228;79;26509;-72
2021/04/12 01:42:57;;;;;;;11.20;6.40;;;;;;;11.84;60.44;100670.19;1722879;79;26254;-73
2021/04/12 01:46:06;;;;;;;10.72;6.67;;;;;;;11.81;60.38;100666.54;1773836;78;26047;-72
2021/04/12 01:49:01;;;;;;;11.55;6.35;;;;;;;11.82;60.44;100666.03;1743662;80;28518;-72
2021/04/12 01:51:37;;;;;;;14.45;6.83;;;;;;;11.83;60.48;100671.20;1750620;80;26087;-72
2021/04/12 01:54:22;;;;;;;11.80;6.87;;;;;;;11.82;60.39;100664.19;1766102;80;25841;-72
2021/04/12 01:57:26;;;;;;;17.02;8.55;;;;;;;11.82;60.35;100665.53;1771619;80;25755;-72
2021/04/12 02:00:27;;;;;;;13.30;7.25;;;;;;;11.79;60.37;100663.22;1772848;79;25855;-72
2021/04/12 02:03:20;;;;;;;16.00;7.90;;;;;;;11.76;60.28;100662.78;1793491;79;28415;-73
2021/04/12 02:06:12;;;;;;;16.75;8.43;;;;;;;11.73;60.45;100659.97;1749862;80;26660;-72
2021/04/12 02:09:17;;;;;;;11.43;7.58;;;;;;;11.71;60.42;100656.66;1747534;80;25809;-73
2021/04/12 02:11:52;;;;;;;14.90;8.68;;;;;;;11.69;60.43;100660.55;1779051;79;26578;-72
2021/04/12 02:14:37;;;;;;;9.78;6.72;;;;;;;11.67;60.37;100660.75;1748216;81;25814;-72
2021/04/12 02:17:38;;;;;;;12.47;7.22;;;;;;;11.64;60.42;100661.92;1776718;79;26836;-72
2021/04/12 02:20:16;;;;;;;11.73;7.25;;;;;;;11.58;60.40;100660.02;1751164;80;25872;-73
2021/04/12 02:23:15;;;;;;;10.63;7.70;;;;;;;11.54;60.63;100662.77;1775303;80;26418;-73
2021/04/12 02:26:05;;;;;;;10.40;6.17;;;;;;;11.49;60.63;100651.77;1751820;79;25807;-72
2021/04/12 02:29:05;;;;;;;9.58;6.50;;;;;;;11.45;60.74;100656.36;1752761;79;26350;-72
2021/04/12 02:32:05;;;;;;;10.63;6.65;;;;;;;11.42;60.98;100656.73;1730678;81;27298;-73
2021/04/12 02:35:01;;;;;;;13.08;6.08;;;;;;;11.38;61.10;100659.47;1777953;79;25844;-73
2021/04/12 02:37:46;;;;;;;9.20;6.08;;;;;;;11.35;61.07;100655.84;1735650;79;25862;-72
2021/04/12 02:40:24;;;;;;;8.28;5.92;;;;;;;11.29;61.05;100654.73;1739148;80;26244;-72
2021/04/12 02:43:22;;;;;;;8.25;5.72;;;;;;;11.22;61.12;100651.68;1714224;80;25894;-72
2021/04/12 02:46:19;;;;;;;9.40;6.25;;;;;;;11.20;61.47;100652.38;1778846;80;27766;-72
2021/04/12 02:49:15;;;;;;;11.00;6.97;;;;;;;11.20;61.53;100651.04;1735850;80;25715;-73
2021/04/12 02:52:23;;;;;;;8.58;5.95;;;;;;;11.16;61.43;100658.61;1752666;80;26439;-72
2021/04/12 02:55:16;;;;;;;10.82;6.37;;;;;;;11.16;61.71;100653.25;1816749;77;27760;-73
2021/04/12 02:58:32;;;;;;;9.63;5.75;;;;;;;11.34;61.30;100656.86;1763363;80;26086;-73
2021/04/12 03:01:47;;;;;;;11.65;5.83;;;;;;;11.29;61.35;100659.30;1748089;81;27596;-74
2021/04/12 03:04:58;;;;;;;10.38;6.30;;;;;;;11.18;61.46;100654.42;1745641;80;26253;-73
2021/04/12 03:08:07;;;;;;;8.30;5.93;;;;;;;11.11;61.47;100655.69;1736108;81;25425;-73
2021/04/12 03:11:24;;;;;;;8.38;5.33;;;;;;;11.03;61.64;100653.13;1754425;81;25704;-74
2021/04/12 03:14:24;;;;;;;13.53;6.62;;;;;;;10.99;61.66;100655.83;1715095;81;25843;-74
2021/04/12 03:17:20;;;;;;;8.65;6.28;;;;;;;10.95;61.79;100655.89;1724638;81;27544;-72
2021/04/12 03:19:58;;;;;;;12.10;7.42;;;;;;;10.93;61.94;100656.59;1738173;80;26083;-72
2021/04/12 03:22:40;;;;;;;10.23;7.45;;;;;;;10.93;62.01;100659.80;1721481;81;25891;-73
2021/04/12 03:25:40;;;;;;;11.80;7.53;;;;;;;10.90;61.99;100661.00;1733368;81;26191;-72
2021/04/12 03:28:31;;;;;;;11.85;7.58;;;;;;;10.87;62.01;100662.70;1712106;81;26513;-72
2021/04/12 03:31:37;;;;;;;9.93;6.65;;;;;;;10.83;62.01;100656.89;1735140;81;28485;-73
2021/04/12 03:34:21;;;;;;;9.93;6.72;;;;;;;10.82;62.25;100659.73;1751407;81;25803;-72
2021/04/12 03:37:06;;;;;;;11.18;6.25;;;;;;;10.79;62.26;100658.29;1765382;80;25961;-73
2021/04/12 03:40:01;;;;;;;10.80;6.60;;;;;;;10.77;62.26;100656.81;1749312;81;26473;-73
2021/04/12 03:43:04;;;;;;;9.80;6.25;;;;;;;10.72;62.30;100662.72;1723712;81;26367;-73
2021/04/12 03:46:13;;;;;;;12.33;6.28;;;;;;;10.71;62.44;100657.56;1730095;81;27550;-73
2021/04/12 03:49:05;;;;;;;10.45;6.62;;;;;;;10.70;62.52;100663.42;1669379;85;25842;-72
2021/04/12 03:52:08;;;;;;;9.35;6.58;;;;;;;10.65;62.57;100660.45;1696429;82;25756;-73
2021/04/12 03:55:01;;;;;;;8.85;6.00;;;;;;;10.63;62.62;100666.50;1723985;81;25807;-74
2021/04/12 03:57:56;;;;;;;10.95;6.78;;;;;;;10.59;62.70;100656.34;1749713;81;26412;-73
2021/04/12 04:01:05;;;;;;;11.00;7.03;;;;;;;10.56;62.75;100664.77;1723571;81;27550;-73
2021/04/12 04:03:47;;;;;;;10.18;6.50;;;;;;;10.54;62.78;100660.91;1726212;82;26104;-73
2021/04/12 04:06:42;;;;;;;10.30;6.50;;;;;;;10.49;62.74;100670.03;1730575;81;25830;-73
2021/04/12 04:09:23;;;;;;;10.78;6.85;;;;;;;10.47;62.70;100667.20;1750667;81;26407;-73
2021/04/12 04:12:17;;;;;;;13.88;6.75;;;;;;;10.43;62.79;100670.77;1726585;81;26461;-72
2021/04/12 04:15:08;;;;;;;9.53;6.15;;;;;;;10.42;62.83;100669.59;1764961;80;27584;-73
2021/04/12 04:18:03;;;;;;;12.40;7.28;;;;;;;10.41;62.87;100674.64;1732408;81;25964;-73
2021/04/12 04:20:55;;;;;;;13.48;7.17;;;;;;;10.39;63.00;100674.80;1749287;81;25788;-72
2021/04/12 04:24:04;;;;;;;11.33;7.03;;;;;;;10.40;63.07;100671.63;1723870;82;25787;-73
2021/04/12 04:27:04;;;;;;;13.95;6.87;;;;;;;10.38;63.00;100673.16;1724189;81;25914;-72
2021/04/12 04:29:53;;;;;;;10.32;7.30;;;;;;;10.36;63.13;100673.02;1739032;81;28094;-72
2021/04/12 04:33:12;;;;;;;11.15;7.30;;;;;;;10.33;63.17;100670.19;1752478;81;25818;-72
2021/04/12 04:36:04;;;;;;;11.95;6.80;;;;;;;10.32;63.25;100679.25;1718269;81;25794;-73
2021/04/12 04:39:13;;;;;;;9.93;6.95;;;;;;;10.30;63.38;100671.08;1719464;81;26484;-72
2021/04/12 04:41:58;;;;;;;9.95;7.47;;;;;;;10.32;63.35;100677.08;1720442;81;25864;-73
2021/04/12 04:44:53;;;;;;;10.58;7.05;;;;;;;10.29;63.39;100682.28;1750252;81;27466;-73
2021/04/12 04:47:59;;;;;;;11.85;7.58;;;;;;;10.30;63.46;100685.30;1727703;81;25881;-73
2021/04/12 04:51:07;;;;;;;11.10;7.87;;;;;;;10.31;63.61;100678.11;1649655;85;25964;-72
2021/04/12 04:54:07;;;;;;;13.80;8.08;;;;;;;10.30;63.67;100681.78;1721277;81;25833;-73
2021/04/12 04:57:28;;;;;;;13.70;7.92;;;;;;;10.32;63.80;100675.73;1703447;82;26205;-73
2021/04/12 05:00:29;;;;;;;12.95;7.87;;;;;;;10.34;63.94;100678.56;1703423;82;27531;-72
2021/04/12 05:03:26;;;;;;;;;;;;;;;10.38;63.99;100677.17;1708963;82;26342;-72
2021/04/12 05:06:17;;;;;;;9.80;6.60;;;;;;;10.43;64.22;100673.95;1703246;82;25926;-73
2021/04/12 05:09:11;;;;;;;14.63;8.38;;;;;;;10.45;64.10;100672.75;1705692;82;25775;-73
2021/04/12 05:12:22;;;;;;;16.00;8.08;;;;;;;10.49;64.26;100679.41;1718849;82;26446;-72
2021/04/12 05:15:37;;;;;;;8.20;6.92;;;;;;;10.54;64.28;100678.32;1697773;82;27620;-73
2021/04/12 05:18:41;;;;;;;12.18;7.70;;;;;;;10.60;64.35;100680.29;1702606;82;25757;-76
2021/04/12 05:21:32;;;;;;;16.05;8.48;;;;;;;10.68;64.37;100684.70;1693911;82;26077;-73
2021/04/12 05:24:36;;;;;;;11.90;8.30;;;;;;;10.71;64.38;100681.14;1728876;82;26050;-72
2021/04/12 05:28:00;;;;;;;13.28;8.20;;;;;;;10.76;64.38;100684.10;1680491;82;25733;-73
2021/04/12 05:30:54;;;;;;;14.33;8.40;;;;;;;10.85;64.33;100679.48;1701795;82;27338;-73
2021/04/12 05:34:06;;;;;;;11.75;7.40;;;;;;;10.96;64.45;100679.51;1684567;83;25810;-73
2021/04/12 05:37:06;;;;;;;13.68;8.18;;;;;;;11.03;64.41;100676.41;1763932;81;25729;-73
2021/04/12 05:40:29;;;;;;;10.27;7.53;;;;;;;11.13;64.50;100675.59;1741972;80;25842;-74
2021/04/12 05:43:41;;;;;;;12.13;6.65;;;;;;;11.23;64.61;100676.11;1756600;81;25780;-73
2021/04/12 05:46:38;;;;;;;13.90;6.92;;;;;;;11.35;64.60;100679.98;1731826;81;27598;-74
2021/04/12 05:49:53;;;;;;;10.72;6.28;;;;;;;11.43;64.41;100673.99;1754826;81;25799;-72
2021/04/12 05:52:58;;;;;;;12.70;6.87;;;;;;;11.53;64.39;100671.81;1723303;81;25862;-73
2021/04/12 05:55:43;;;;;;;12.00;6.67;;;;;;;11.65;64.30;100676.98;1756377;78;26428;-72
2021/04/12 05:58:43;;;;;;;14.80;7.05;;;;;;;11.75;63.84;100683.42;1755886;78;26091;-72
2021/04/12 06:01:35;;;;;;;14.70;6.50;;;;;;;11.84;63.87;100686.30;1791857;78;27479;-73
2021/04/12 06:04:11;;;;;;;;;;;;;;;11.93;63.71;100686.45;1786172;78;26108;-73
2021/04/12 06:07:10;;;;;;;11.53;6.80;;;;;;;12.03;63.61;100685.64;1791132;78;25788;-73
2021/04/12 06:10:07;;;;;;;11.38;6.35;;;;;;;12.13;63.33;100682.09;1766903;78;26448;-73
2021/04/12 06:13:09;;;;;;;10.35;6.58;;;;;;;12.26;63.28;100673.30;1782142;79;26149;-73
2021/04/12 06:16:04;;;;;;;13.20;7.03;;;;;;;12.36;63.40;100678.64;1777533;78;27946;-74
2021/04/12 06:18:45;;;;;;;12.85;6.85;;;;;;;12.49;62.89;100676.55;1757212;80;25758;-73
2021/04/12 06:21:54;;;;;;;10.45;6.70;;;;;;;12.64;62.79;100687.21;1714793;81;25975;-73
2021/04/12 06:24:51;;;;;;;9.53;6.90;;;;;;;12.71;62.57;100678.14;1735324;80;26357;-72
2021/04/12 06:28:07;;;;;;;12.43;6.67;;;;;;;12.81;62.15;100669.20;1745897;81;25813;-72
2021/04/12 06:30:47;;;;;;;12.63;7.40;;;;;;;12.92;62.14;100666.45;1748170;81;27542;-73
2021/04/12 06:33:41;;;;;;;9.05;6.50;;;;;;;13.01;61.82;100662.06;1736045;80;26140;-73
2021/04/12 06:36:20;;;;;;;9.70;6.15;;;;;;;13.12;61.68;100674.97;1721033;81;25750;-73
2021/04/12 06:39:34;;;;;;;13.80;7.05;;;;;;;13.21;61.50;100681.50;1732422;81;25982;-73
2021/04/12 06:42:36;;;;;;;9.55;6.97;;;;;;;13.30;61.12;100684.34;1743418;81;25795;-73
2021/04/12 06:45:25;;;;;;;11.80;6.97;;;;;;;13.40;61.13;100681.57;1740498;81;27596;-73
2021/04/12 06:48:21;;;;;;;13.55;7.90;;;;;;;13.52;60.98;100681.28;1730437;80;25772;-73
2021/04/12 06:51:26;;;;;;;12.23;7.25;;;;;;;13.65;60.79;100681.82;1750003;81;25835;-73
2021/04/12 06:54:35;;;;;;;12.18;7.08;;;;;;;13.77;60.70;100676.97;1765725;80;25827;-73
2021/04/12 06:57:51;;;;;;;12.28;7.72;;;;;;;13.89;60.17;100679.38;1739576;80;25847;-73
2021/04/12 07:01:03;;;;;;;12.80;6.78;;;;;;;14.02;59.45;100681.76;1781802;79;28504;-73
2021/04/12 07:04:26;;;;;;;13.03;7.70;;;;;;;14.13;59.11;100679.28;1730564;81;25908;-73
2021/04/12 07:07:31;;;;;;;9.60;7.33;;;;;;;14.23;58.52;100678.34;1790673;79;25748;-73
2021/04/12 07:10:42;;;;;;;11.80;7.55;;;;;;;14.33;58.45;100676.08;1764475;79;25818;-73
2021/04/12 07:13:47;;;;;;;12.68;6.55;;;;;;;14.44;58.38;100679.48;1765932;79;26452;-74
2021/04/12 07:16:50;;;;;;;14.75;7.05;;;;;;;14.54;57.98;100678.52;1785844;78;27518;-72
2021/04/12 07:19:52;;;;;;;10.88;7.17;;;;;;;14.66;57.52;100674.16;1793461;78;25785;-73
2021/04/12 07:22:57;;;;;;;11.03;6.83;;;;;;;14.85;56.84;100673.78;1819322;77;26251;-73
2021/04/12 07:26:10;;;;;;;9.50;6.85;;;;;;;14.87;56.75;100672.22;1797521;78;25761;-73
2021/04/12 07:29:05;;;;;;;8.60;6.22;;;;;;;14.96;56.61;100683.08;1769325;78;28574;-74
2021/04/12 07:32:10;;;;;;;10.32;6.47;;;;;;;15.06;56.48;100676.20;1772997;78;26052;-73
2021/04/12 07:35:33;;;;;;;9.13;6.33;;;;;;;15.13;56.16;100674.30;1764194;79;25821;-73
2021/04/12 07:38:45;;;;;;;10.30;5.85;;;;;;;15.25;55.57;100673.92;1791366;78;25801;-73
2021/04/12 07:41:50;;;;;;;11.22;5.35;;;;;;;15.39;55.33;100674.19;1782379;78;25787;-74
2021/04/12 07:44:48;;;;;;;9.58;5.35;;;;;;;15.54;54.85;100673.08;1796958;78;27534;-73
2021/04/12 07:47:39;;;;;;;9.78;4.95;;;;;;;15.61;53.45;100681.43;1764160;80;25939;-73
2021/04/12 07:50:26;;;;;;;8.70;5.30;;;;;;;15.67;53.99;100671.65;1753775;78;25869;-73
2021/04/12 07:53:31;;;;;;;10.35;5.75;;;;;;;15.77;53.70;100667.42;1804332;78;26548;-73
2021/04/12 07:56:54;;;;;;;7.83;4.35;;;;;;;15.86;53.75;100674.22;1781077;78;26255;-74
2021/04/12 08:00:01;;;;;;;7.37;4.55;;;;;;;15.94;53.35;100673.11;1763506;78;27591;-73
2021/04/12 08:03:04;;;;;;;7.55;4.47;;;;;;;15.99;52.08;100674.64;1770009;78;25859;-73
2021/04/12 08:06:13;;;;;;;8.88;4.85;;;;;;;16.03;52.31;100667.22;1752287;78;26544;-73
2021/04/12 08:09:14;;;;;;;6.10;4.53;;;;;;;16.09;51.83;100669.55;1768701;80;26159;-72
2021/04/12 08:12:10;;;;;;;8.65;4.17;;;;;;;16.15;51.25;100664.09;1792041;78;26147;-72
2021/04/12 08:15:23;;;;;;;7.25;4.50;;;;;;;16.20;51.20;100664.78;1801655;78;28444;-73
2021/04/12 08:18:36;;;;;;;7.30;4.42;;;;;;;16.28;50.65;100666.36;1798177;78;26616;-73
2021/04/12 08:21:37;;;;;;;8.10;4.47;;;;;;;16.24;49.73;100663.29;1805398;78;26440;-73
2021/04/12 08:24:18;;;;;;;6.22;4.08;;;;;;;16.30;50.32;100663.75;1773422;78;25777;-73
2021/04/12 08:27:05;;;;;;;;;;;;;;;16.37;49.82;100665.88;1805121;78;26422;-73
2021/04/12 08:30:23;;;;;;;7.00;3.27;;;;;;;16.41;49.33;100668.43;1797361;78;27608;-72
2021/04/12 08:33:15;;;;;;;5.17;3.40;;;;;;;16.46;48.95;100668.59;1780479;78;25851;-74
2021/04/12 08:36:29;;;;;;;5.03;3.35;;;;;;;16.48;47.48;100667.02;1775859;79;26147;-73
2021/04/12 08:39:14;;;;;;;6.97;3.70;;;;;;;16.49;48.81;100669.48;1778195;78;26107;-75
2021/04/12 08:42:15;;;;;;;5.72;3.75;;;;;;;16.62;49.59;100669.39;1800502;78;25763;-73
2021/04/12 08:45:14;;;;;;;5.08;3.65;;;;;;;16.73;49.59;100665.94;1786124;78;28468;-73
2021/04/12 08:48:20;;;;;;;8.90;4.22;;;;;;;16.81;47.95;100664.80;1810845;78;25870;-73
2021/04/12 08:51:28;;;;;;;6.30;3.33;;;;;;;16.80;48.26;100660.45;1780321;78;25612;-74
2021/04/12 08:54:30;;;;;;;5.40;3.55;;;;;;;16.87;48.56;100662.57;1800620;78;26137;-74
2021/04/12 08:57:36;;;;;;;7.75;4.05;;;;;;;16.98;46.12;100662.62;1731285;81;25835;-73
2021/04/12 09:00:49;;;;;;;5.95;3.58;;;;;;;16.98;47.47;100671.81;1719256;81;26776;-72
2021/04/12 09:04:11;;;;;;;7.42;3.72;;;;;;;17.01;47.14;100664.57;1713830;81;26061;-74
2021/04/12 09:07:17;;;;;;;6.05;3.10;;;;;;;16.99;46.76;100663.45;1722072;81;26552;-73
2021/04/12 09:10:35;;;;;;;8.33;3.25;;;;;;;17.02;47.46;100667.59;1699447;82;25791;-72
2021/04/12 09:13:51;;;;;;;5.87;3.17;;;;;;;17.18;47.15;100656.12;1832625;77;25758;-73
2021/04/12 09:16:35;;;;;;;6.87;3.30;;;;;;;17.17;47.45;100653.95;1772684;80;25798;-74
2021/04/12 09:19:49;;;;;;;13.58;6.75;;;;;;;17.22;47.52;100658.16;1733091;80;27933;-73
2021/04/12 09:22:58;;;;;;;5.62;3.05;;;;;;;17.27;47.51;100658.31;1738607;81;25909;-73
2021/04/12 09:26:08;;;;;;;5.60;2.90;;;;;;;17.36;46.84;100652.88;1787182;78;26531;-73
2021/04/12 09:28:56;;;;;;;5.08;3.02;;;;;;;17.42;47.30;100658.73;1772441;80;26023;-75
2021/04/12 09:31:51;;;;;;;5.95;3.12;;;;;;;17.52;47.00;100661.73;1770011;80;25723;-74
2021/04/12 09:34:55;;;;;;;5.90;2.80;;;;;;;17.54;46.13;100658.78;1768611;80;27601;-73
2021/04/12 09:37:53;;;;;;;8.05;3.20;;;;;;;17.52;45.90;100654.13;1727759;80;25889;-74
2021/04/12 09:40:47;;;;;;;6.30;3.58;;;;;;;17.58;46.75;100653.20;1766203;80;25900;-75
2021/04/12 09:43:34;;;;;;;5.35;3.50;;;;;;;17.69;46.06;100653.24;1741902;80;25773;-73
2021/04/12 09:46:33;;;;;;;5.95;3.20;;;;;;;17.78;45.57;100649.67;1748576;80;25791;-73
2021/04/12 09:49:29;;;;;;;9.28;3.45;;;;;;;17.82;46.33;100649.50;1755314;80;27341;-75
2021/04/12 09:52:27;;;;;;;4.67;3.40;;;;;;;17.91;46.12;100646.75;1664271;81;26316;-75
2021/04/12 09:55:35;;;;;;;6.28;3.37;;;;;;;18.04;46.38;100650.61;1772876;80;25803;-74
2021/04/12 09:58:48;;;;;;;8.93;3.50;;;;;;;18.17;45.77;100646.32;1813913;77;26323;-75
2021/04/12 10:01:23;;;;;;;7.25;3.15;;;;;;;18.11;46.04;100653.21;1765740;78;26168;-75
2021/04/12 10:04:48;;;;;;;6.55;3.60;;;;;;;18.02;45.41;100648.66;1762903;78;27533;-74
2021/04/12 10:07:56;;;;;;;4.22;3.08;;;;;;;17.95;46.13;100647.94;1804690;78;26427;-75
2021/04/12 10:10:31;;;;;;;6.92;3.40;;;;;;;17.86;45.71;100651.20;1749197;78;25872;-73
2021/04/12 10:13:26;;;;;;;3.90;3.45;;;;;;;17.82;45.72;100646.79;1777223;78;25821;-73
2021/04/12 10:16:20;;;;;;;9.33;3.12;;;;;;;17.82;45.69;100650.02;1795058;78;26195;-74
2021/04/12 10:19:19;;;;;;;5.55;3.12;;;;;;;17.81;45.28;100651.09;1769615;79;27541;-74
2021/04/12 10:21:57;;;;;;;7.78;3.50;;;;;;;17.78;45.00;100652.91;1770547;78;25974;-75
2021/04/12 10:24:53;;;;;;;6.58;3.42;;;;;;;17.80;44.94;100650.27;1795112;78;25759;-75
2021/04/12 10:27:44;;;;;;;5.72;2.77;;;;;;;17.82;44.87;100649.50;1788050;78;26437;-75
2021/04/12 10:30:22;;;;;;;6.12;3.25;;;;;;;17.91;45.89;100652.70;1786533;78;25823;-74
2021/04/12 10:33:03;;;;;;;11.00;3.72;;;;;;;18.02;46.01;100649.19;1762800;78;27340;-75
2021/04/12 10:35:47;;;;;;;5.03;2.90;;;;;;;18.15;45.73;100647.61;1798441;78;26245;-74
2021/04/12 10:38:38;;;;;;;3.42;2.75;;;;;;;18.30;45.60;100644.73;1764861;79;26484;-75
2021/04/12 10:41:23;;;;;;;7.47;2.77;;;;;;;18.37;44.32;100641.88;1779519;78;25382;-74
2021/04/12 10:44:34;;;;;;;7.28;3.30;;;;;;;18.43;44.97;100637.69;1755228;79;25895;-75
2021/04/12 10:47:29;;;;;;;6.72;3.52;;;;;;;18.52;44.87;100640.90;1787730;78;27503;-73
2021/04/12 10:50:10;;;;;;;9.48;4.50;;;;;;;18.65;44.48;100638.49;1759907;80;25766;-75
2021/04/12 10:52:52;;;;;;;6.53;2.90;;;;;;;18.77;44.67;100643.36;1787307;78;25816;-73
2021/04/12 10:55:39;;;;;;;6.65;3.08;;;;;;;18.82;44.43;100642.12;1773476;78;25863;-74
2021/04/12 10:58:37;;;;;;;9.33;2.98;;;;;;;18.81;44.36;100642.64;1809002;78;26097;-74
2021/04/12 11:01:08;;;;;;;6.45;2.98;;;;;;;18.92;44.40;100640.44;1783919;78;27759;-74
2021/04/12 11:04:09;;;;;;;6.05;3.00;;;;;;;19.09;44.54;100635.91;1775203;78;33118;-74
2021/04/12 11:07:15;;;;;;;7.00;2.85;;;;;;;19.19;43.64;100637.45;1758231;78;26245;-74
2021/04/12 11:10:13;;;;;;;7.67;2.90;;;;;;;19.22;43.78;100636.95;1811121;78;26520;-75
2021/04/12 11:12:49;;;;;;;6.40;2.90;;;;;;;19.23;43.69;100635.89;1798547;78;26219;-74
2021/04/12 11:15:37;;;;;;;5.83;2.85;;;;;;;19.23;43.72;100635.06;1775415;78;27527;-75
2021/04/12 11:18:27;;;;;;;5.05;3.08;;;;;;;19.25;43.44;100631.05;1779744;78;25914;-74
2021/04/12 11:21:17;;;;;;;9.80;2.92;;;;;;;19.25;43.58;100633.76;1808949;78;26507;-74
2021/04/12 11:24:10;;;;;;;3.72;2.72;;;;;;;19.26;43.31;100637.30;1773935;78;25886;-74
2021/04/12 11:27:33;;;;;;;8.03;3.58;;;;;;;19.24;43.05;100636.20;1788661;78;25732;-74
2021/04/12 11:30:15;;;;;;;7.75;4.33;;;;;;;19.25;43.15;100636.48;1770452;78;28075;-74
2021/04/12 11:33:15;;;;;;;7.72;4.35;;;;;;;19.17;42.92;100637.39;1800106;78;25868;-74
2021/04/12 11:36:10;;;;;;;4.78;3.47;;;;;;;19.15;43.23;100639.00;1775723;78;25798;-73
2021/04/12 11:38:58;;;;;;;6.70;3.92;;;;;;;19.09;43.12;100640.50;1798977;78;25976;-74
2021/04/12 11:41:47;;;;;;;5.20;2.90;;;;;;;19.12;43.44;100646.79;1735723;80;26122;-74
2021/04/12 11:44:35;;;;;;;13.05;4.70;;;;;;;19.30;43.80;100635.75;1773870;80;27513;-74
2021/04/12 11:47:24;;;;;;;3.45;2.98;;;;;;;19.51;43.41;100636.45;1759647;80;26094;-74
2021/04/12 11:50:33;;;;;;;7.15;3.37;;;;;;;19.71;43.94;100632.75;1716875;80;25819;-74
2021/04/12 11:53:30;;;;;;;5.28;3.02;;;;;;;19.78;43.09;100637.47;1738773;80;25902;-74
2021/04/12 11:56:33;;;;;;;4.92;3.00;;;;;;;19.74;42.39;100632.77;1767822;80;25547;-74
2021/04/12 11:59:33;;;;;;;6.67;3.05;;;;;;;19.70;42.92;100635.69;1761541;80;28696;-74
2021/04/12 12:02:23;;;;;;;5.72;3.27;;;;;;;19.63;42.71;100639.92;1717480;82;25723;-74
2021/04/12 12:05:08;;;;;;;10.35;4.12;;;;;;;19.52;42.81;100633.20;1701696;81;25802;-75
2021/04/12 12:07:49;;;;;;;5.87;3.75;;;;;;;19.42;42.63;100641.17;1768588;80;26114;-74
2021/04/12 12:11:00;;;;;;;3.75;3.05;;;;;;;19.32;43.02;100636.33;1737145;80;26705;-75
2021/04/12 12:13:48;;;;;;;5.47;3.22;;;;;;;19.27;42.71;100633.51;1740906;80;28147;-74
2021/04/12 12:16:32;;;;;;;9.18;3.27;;;;;;;19.33;43.05;100631.20;1731401;80;26511;-74
2021/04/12 12:19:26;;;;;;;8.70;3.05;;;;;;;19.39;41.90;100635.69;1763022;80;26405;-74
2021/04/12 12:22:23;;;;;;;5.70;3.70;;;;;;;19.41;42.37;100634.91;1761484;80;26341;-74
2021/04/12 12:25:07;;;;;;;5.80;3.77;;;;;;;19.54;43.33;100633.78;1825924;77;25802;-74
2021/04/12 12:27:52;;;;;;;6.37;3.65;;;;;;;19.52;42.78;100633.20;1812556;77;25934;-75
2021/04/12 12:30:33;;;;;;;3.75;3.33;;;;;;;19.51;41.53;100631.54;1837701;77;26275;-75
2021/04/12 12:33:33;;;;;;;7.33;3.87;;;;;;;19.38;41.99;100631.31;1802184;78;25850;-75
2021/04/12 12:36:23;;;;;;;8.18;3.47;;;;;;;19.33;41.98;100635.80;1762643;80;27510;-75
2021/04/12 12:39:15;;;;;;;7.45;4.20;;;;;;;19.25;42.34;100637.00;1769352;80;25781;-74
2021/04/12 12:41:46;;;;;;;9.90;6.62;;;;;;;19.14;42.03;100641.94;1679888;83;26624;-74
2021/04/12 12:44:19;;;;;;;11.00;6.17;;;;;;;19.00;42.61;100646.01;1707101;82;25874;-74
2021/04/12 12:46:47;;;;;;;10.43;7.20;;;;;;;18.80;42.98;100653.19;1700179;81;26070;-75
2021/04/12 12:49:29;;;;;;;11.83;7.05;;;;;;;18.64;43.21;100651.23;1708233;81;27532;-74
2021/04/12 12:52:04;;;;;;;13.75;6.97;;;;;;;18.58;43.79;100652.19;1713492;81;25863;-74
2021/04/12 12:54:45;;;;;;;12.43;6.12;;;;;;;18.57;44.07;100649.69;1706065;82;25955;-75
2021/04/12 12:57:20;;;;;;;;;;;;;;;18.56;44.03;100648.05;1716894;82;26101;-74
2021/04/12 12:59:54;;;;;;;8.40;6.37;;;;;;;18.53;43.49;100641.73;1697694;82;26095;-73
2021/04/12 13:02:35;;;;;;;11.43;7.53;;;;;;;18.46;43.79;100654.89;1693433;82;28791;-74
2021/04/12 13:05:32;;;;;;;10.77;7.27;;;;;;;18.44;44.03;100654.83;1703825;82;28220;-74
2021/04/12 13:08:09;;;;;;;11.60;6.72;;;;;;;18.41;44.04;100660.16;1709959;82;25731;-74
2021/04/12 13:10:49;;;;;;;11.22;6.72;;;;;;;18.39;44.06;100650.08;1720875;82;26248;-74
2021/04/12 13:13:29;;;;;;;8.55;6.83;;;;;;;18.43;44.68;100653.16;1709193;82;25830;-73
2021/04/12 13:16:19;;;;;;;9.93;6.70;;;;;;;18.43;43.98;100647.18;1710315;82;27544;-74
2021/04/12 13:19:02;;;;;;;12.33;7.15;;;;;;;18.40;44.57;100655.81;1710350;83;25935;-74
2021/04/12 13:21:40;;;;;;;11.85;8.20;;;;;;;18.34;44.33;100658.64;1700983;82;26352;-74
2021/04/12 13:24:33;;;;;;;12.37;8.80;;;;;;;18.25;44.49;100655.98;1694867;82;25949;-74
2021/04/12 13:27:11;;;;;;;15.15;8.80;;;;;;;18.22;44.73;100656.47;1735509;81;25816;-73
2021/04/12 13:30:01;;;;;;;11.93;8.03;;;;;;;18.16;44.41;100660.92;1718316;82;29382;-74
2021/04/12 13:32:39;;;;;;;13.33;8.67;;;;;;;18.12;45.12;100661.63;1721104;82;26044;-74